createdAt,value
2018-12-22T00:00:02.463Z,11.80
2018-12-22T00:02:30.692Z,11.80
2018-12-22T00:04:59.290Z,11.60
2018-12-22T00:07:27.543Z,11.70
2018-12-22T00:09:59.252Z,11.60
2018-12-22T00:12:27.761Z,11.70
2018-12-22T00:14:55.987Z,11.70
2018-12-22T00:17:24.421Z,11.60
2018-12-22T00:19:56.460Z,11.80
2018-12-22T00:22:24.656Z,11.60
2018-12-22T00:24:52.821Z,11.60
2018-12-22T00:27:20.974Z,11.50
2018-12-22T00:29:49.162Z,11.50
2018-12-22T00:32:17.372Z,11.60
2018-12-22T00:34:47.592Z,11.60
2018-12-22T00:37:16.615Z,11.70
2018-12-22T00:39:45.360Z,11.60
2018-12-22T00:42:14.415Z,11.70
2018-12-22T00:44:42.596Z,11.60
2018-12-22T00:47:10.795Z,11.70
2018-12-22T00:49:38.974Z,11.60
2018-12-22T00:52:13.667Z,11.70
2018-12-22T00:54:41.914Z,11.90
2018-12-22T00:57:10.146Z,11.90
2018-12-22T00:59:38.427Z,11.80
2018-12-22T01:02:10.304Z,11.70
2018-12-22T01:04:38.541Z,11.70
2018-12-22T01:07:06.811Z,11.70
2018-12-22T01:09:35.052Z,11.60
2018-12-22T01:12:06.996Z,11.80
2018-12-22T01:14:35.242Z,11.90
2018-12-22T01:17:03.552Z,11.70
2018-12-22T01:19:31.790Z,11.80
2018-12-22T01:22:06.308Z,11.80
2018-12-22T01:24:34.589Z,11.80
2018-12-22T01:27:02.934Z,11.90
2018-12-22T01:29:31.167Z,11.80
2018-12-22T01:32:12.467Z,11.80
2018-12-22T01:34:40.728Z,12.00
2018-12-22T01:37:08.966Z,12.00
2018-12-22T01:39:37.218Z,12.00
2018-12-22T01:42:11.535Z,11.80
2018-12-22T01:44:39.708Z,11.60
2018-12-22T01:47:07.924Z,11.70
2018-12-22T01:49:36.150Z,11.70
2018-12-22T01:52:08.327Z,11.70
2018-12-22T01:54:36.597Z,11.70
2018-12-22T01:57:04.847Z,11.70
2018-12-22T01:59:33.087Z,11.50
2018-12-22T02:02:05.126Z,11.50
2018-12-22T02:04:33.479Z,11.20
2018-12-22T02:07:01.670Z,11.20
2018-12-22T02:09:29.878Z,11.10
2018-12-22T02:12:01.712Z,10.90
2018-12-22T02:14:29.988Z,10.90
2018-12-22T02:16:58.195Z,10.80
2018-12-22T02:19:26.738Z,10.70
2018-12-22T02:22:00.617Z,10.70
2018-12-22T02:24:28.840Z,10.60
2018-12-22T02:26:57.070Z,10.70
2018-12-22T02:29:25.279Z,10.70
2018-12-22T02:31:57.049Z,10.60
2018-12-22T02:34:25.307Z,10.70
2018-12-22T02:36:53.636Z,10.70
2018-12-22T02:39:21.795Z,10.60
2018-12-22T02:41:56.098Z,10.60
2018-12-22T02:44:24.301Z,10.60
2018-12-22T02:46:52.454Z,10.40
2018-12-22T02:49:20.651Z,10.50
2018-12-22T02:51:52.555Z,10.60
2018-12-22T02:54:20.796Z,10.50
2018-12-22T02:56:49.137Z,10.50
2018-12-22T02:59:17.318Z,10.50
2018-12-22T03:01:49.059Z,10.50
2018-12-22T03:04:17.293Z,10.60
2018-12-22T03:06:45.486Z,10.40
2018-12-22T03:09:13.729Z,10.40
2018-12-22T03:11:45.436Z,10.50
2018-12-22T03:14:13.602Z,10.50
2018-12-22T03:16:41.794Z,10.50
2018-12-22T03:19:10.029Z,10.60
2018-12-22T03:21:42.027Z,10.50
2018-12-22T03:24:10.230Z,10.40
2018-12-22T03:26:38.449Z,10.30
2018-12-22T03:29:15.244Z,10.20
2018-12-22T03:31:40.655Z,10.10
2018-12-22T03:34:08.876Z,10.00
2018-12-22T03:36:37.105Z,9.90
2018-12-22T03:39:07.301Z,9.90
2018-12-22T03:41:39.027Z,9.90
2018-12-22T03:44:07.234Z,9.80
2018-12-22T03:46:35.464Z,9.80
2018-12-22T03:49:03.691Z,9.70
2018-12-22T03:54:01.914Z,9.80
2018-12-22T03:56:30.223Z,9.70
2018-12-22T03:58:58.398Z,9.50
2018-12-22T04:01:30.455Z,9.60
2018-12-22T04:03:58.675Z,9.50
2018-12-22T04:06:26.872Z,9.60
2018-12-22T04:08:55.052Z,9.60
2018-12-22T04:11:26.558Z,9.70
2018-12-22T04:13:58.007Z,9.60
2018-12-22T04:16:26.428Z,9.70
2018-12-22T04:18:54.583Z,9.70
2018-12-22T04:21:26.335Z,9.80
2018-12-22T04:23:54.734Z,9.70
2018-12-22T04:26:22.966Z,9.80
2018-12-22T04:28:51.189Z,9.80
2018-12-22T04:31:22.877Z,9.90
2018-12-22T04:33:51.095Z,9.80
2018-12-22T04:36:19.346Z,9.70
2018-12-22T04:38:47.559Z,9.70
2018-12-22T04:41:18.864Z,9.70
2018-12-22T04:43:47.098Z,9.60
2018-12-22T04:46:15.305Z,9.60
2018-12-22T04:48:43.509Z,9.60
2018-12-22T04:51:17.720Z,9.50
2018-12-22T04:53:45.881Z,9.50
2018-12-22T04:56:14.066Z,9.40
2018-12-22T04:58:42.340Z,9.50
2018-12-22T05:01:14.299Z,9.40
2018-12-22T05:03:42.542Z,9.40
2018-12-22T05:06:10.744Z,9.40
2018-12-22T05:08:38.929Z,9.40
2018-12-22T05:11:10.631Z,9.40
2018-12-22T05:13:38.869Z,9.50
2018-12-22T05:16:07.077Z,9.40
2018-12-22T05:18:35.240Z,9.60
2018-12-22T05:21:13.422Z,9.50
2018-12-22T05:23:41.663Z,9.60
2018-12-22T05:26:09.882Z,9.70
2018-12-22T05:28:38.086Z,9.70
2018-12-22T05:31:12.169Z,9.70
2018-12-22T05:33:40.362Z,9.70
2018-12-22T05:36:08.595Z,9.70
2018-12-22T05:38:36.802Z,9.70
2018-12-22T05:41:08.059Z,9.70
2018-12-22T05:43:36.238Z,9.70
2018-12-22T05:46:04.494Z,9.80
2018-12-22T05:48:32.724Z,9.80
2018-12-22T05:51:06.800Z,9.70
2018-12-22T05:53:34.999Z,9.90
2018-12-22T05:56:03.229Z,9.80
2018-12-22T05:58:31.502Z,9.80
2018-12-22T06:01:03.502Z,9.70
2018-12-22T06:03:31.644Z,9.70
2018-12-22T06:05:59.848Z,9.70
2018-12-22T06:08:28.060Z,9.80
2018-12-22T06:10:59.178Z,9.80
2018-12-22T06:13:27.345Z,9.80
2018-12-22T06:15:55.566Z,9.80
2018-12-22T06:18:23.831Z,9.80
2018-12-22T06:20:55.572Z,9.80
2018-12-22T06:23:23.792Z,9.80
2018-12-22T06:25:51.988Z,9.80
2018-12-22T06:28:20.198Z,9.70
2018-12-22T06:30:52.107Z,9.80
2018-12-22T06:33:20.321Z,9.90
2018-12-22T06:35:48.508Z,9.80
2018-12-22T06:38:16.711Z,9.80
2018-12-22T06:40:48.010Z,9.80
2018-12-22T06:43:17.217Z,9.80
2018-12-22T06:45:45.440Z,9.80
2018-12-22T06:48:13.656Z,9.80
2018-12-22T06:50:48.326Z,9.90
2018-12-22T06:53:16.667Z,9.90
2018-12-22T06:55:44.902Z,9.90
2018-12-22T06:58:13.102Z,9.90
2018-12-22T07:00:44.502Z,9.90
2018-12-22T07:03:12.661Z,9.90
2018-12-22T07:05:40.843Z,9.80
2018-12-22T07:08:09.031Z,9.80
2018-12-22T07:10:40.894Z,9.80
2018-12-22T07:13:09.096Z,9.80
2018-12-22T07:15:40.010Z,9.80
2018-12-22T07:18:08.177Z,9.80
2018-12-22T07:20:40.210Z,9.70
2018-12-22T07:23:08.379Z,9.70
2018-12-22T07:25:36.564Z,9.70
2018-12-22T07:28:04.823Z,9.80
2018-12-22T07:30:46.051Z,9.70
2018-12-22T07:33:14.264Z,9.80
2018-12-22T07:35:42.421Z,9.90
2018-12-22T07:38:10.634Z,9.90
2018-12-22T07:40:41.969Z,9.90
2018-12-22T07:43:10.144Z,9.90
2018-12-22T07:45:38.331Z,9.80
2018-12-22T07:48:06.518Z,9.80
2018-12-22T07:50:40.396Z,9.80
2018-12-22T07:53:08.589Z,9.70
2018-12-22T07:55:36.823Z,9.70
2018-12-22T07:58:05.045Z,9.70
2018-12-22T08:00:37.044Z,9.60
2018-12-22T08:03:05.294Z,9.30
2018-12-22T08:05:38.622Z,9.40
2018-12-22T08:08:03.784Z,9.50
2018-12-22T08:10:37.886Z,9.50
2018-12-22T08:13:06.103Z,9.40
2018-12-22T08:15:34.282Z,9.40
2018-12-22T08:18:02.490Z,9.40
2018-12-22T08:20:34.521Z,9.40
2018-12-22T08:23:02.767Z,9.30
2018-12-22T08:25:31.066Z,9.40
2018-12-22T08:27:59.309Z,9.30
2018-12-22T08:30:30.909Z,9.30
2018-12-22T08:32:59.279Z,9.30
2018-12-22T08:35:27.502Z,9.30
2018-12-22T08:37:55.709Z,9.30
2018-12-22T08:40:27.555Z,9.20
2018-12-22T08:42:55.792Z,9.10
2018-12-22T08:45:24.043Z,9.10
2018-12-22T08:47:52.315Z,9.20
2018-12-22T08:50:23.625Z,9.20
2018-12-22T08:52:51.798Z,9.20
2018-12-22T08:55:20.002Z,9.10
2018-12-22T08:57:48.216Z,9.10
2018-12-22T09:00:19.360Z,9.20
2018-12-22T09:02:47.884Z,9.10
2018-12-22T09:05:16.146Z,9.10
2018-12-22T09:07:44.359Z,9.10
2018-12-22T09:10:15.647Z,9.10
2018-12-22T09:12:43.855Z,9.10
2018-12-22T09:15:14.103Z,9.10
2018-12-22T09:17:42.239Z,8.90
2018-12-22T09:20:22.731Z,8.90
2018-12-22T09:22:50.946Z,9.00
2018-12-22T09:25:19.225Z,9.00
2018-12-22T09:27:47.546Z,9.10
2018-12-22T09:30:19.093Z,9.10
2018-12-22T09:32:47.337Z,9.20
2018-12-22T09:35:15.491Z,9.10
2018-12-22T09:37:43.744Z,9.10
2018-12-22T09:40:15.790Z,9.10
2018-12-22T09:42:44.016Z,9.00
2018-12-22T09:45:12.255Z,9.10
2018-12-22T09:47:40.638Z,9.00
2018-12-22T09:50:15.295Z,9.00
2018-12-22T09:52:43.524Z,8.80
2018-12-22T09:55:11.768Z,8.80
2018-12-22T09:57:40.113Z,8.80
2018-12-22T10:00:10.326Z,8.80
2018-12-22T10:02:38.836Z,8.80
2018-12-22T10:05:08.515Z,8.70
2018-12-22T10:07:36.764Z,8.70
2018-12-22T10:10:10.378Z,8.70
2018-12-22T10:12:38.622Z,8.70
2018-12-22T10:15:09.281Z,8.70
2018-12-22T10:17:37.669Z,8.70
2018-12-22T10:20:07.242Z,8.60
2018-12-22T10:22:35.478Z,8.50
2018-12-22T10:25:05.910Z,8.30
2018-12-22T10:27:34.142Z,8.40
2018-12-22T10:30:03.641Z,8.30
2018-12-22T10:32:31.920Z,8.40
2018-12-22T10:35:00.229Z,8.30
2018-12-22T10:37:28.548Z,8.20
2018-12-22T10:39:56.796Z,8.30
2018-12-22T10:42:25.081Z,8.30
2018-12-22T10:44:53.359Z,8.10
2018-12-22T10:47:21.595Z,8.30
2018-12-22T10:49:49.814Z,8.10
2018-12-22T10:52:18.064Z,8.00
2018-12-22T10:54:46.416Z,7.90
2018-12-22T10:57:14.625Z,8.00
2018-12-22T10:59:42.841Z,7.90
2018-12-22T11:02:13.942Z,8.00
2018-12-22T11:04:42.225Z,7.90
2018-12-22T11:07:10.431Z,8.00
2018-12-22T11:09:38.700Z,7.90
2018-12-22T11:12:10.457Z,7.90
2018-12-22T11:14:38.784Z,8.00
2018-12-22T11:17:06.990Z,8.10
2018-12-22T11:19:35.228Z,8.20
2018-12-22T11:22:06.622Z,8.20
2018-12-22T11:24:34.932Z,8.20
2018-12-22T11:27:03.126Z,8.10
2018-12-22T11:29:31.299Z,8.10
2018-12-22T11:32:02.701Z,8.20
2018-12-22T11:34:30.960Z,8.10
2018-12-22T11:36:59.179Z,8.10
2018-12-22T11:39:27.554Z,8.20
2018-12-22T11:41:59.101Z,8.20
2018-12-22T11:44:27.266Z,8.10
2018-12-22T11:46:58.196Z,8.30
2018-12-22T11:49:29.361Z,8.30
2018-12-22T11:51:58.652Z,8.30
2018-12-22T11:54:26.851Z,8.30
2018-12-22T11:56:55.027Z,8.30
2018-12-22T11:59:23.200Z,8.30
2018-12-22T12:01:55.137Z,8.20
2018-12-22T12:04:23.337Z,8.30
2018-12-22T12:06:51.586Z,8.30
2018-12-22T12:09:19.784Z,8.30
2018-12-22T12:11:54.388Z,8.20
2018-12-22T12:14:22.604Z,8.00
2018-12-22T12:16:51.142Z,8.10
2018-12-22T12:19:19.321Z,8.10
2018-12-22T12:21:53.909Z,8.00
2018-12-22T12:24:22.150Z,8.00
2018-12-22T12:26:50.362Z,7.80
2018-12-22T12:29:18.606Z,7.80
2018-12-22T12:31:52.237Z,7.80
2018-12-22T12:34:20.727Z,7.90
2018-12-22T12:36:48.893Z,7.70
2018-12-22T12:39:17.099Z,7.70
2018-12-22T12:41:48.839Z,7.70
2018-12-22T12:44:16.994Z,7.80
2018-12-22T12:46:45.229Z,7.80
2018-12-22T12:49:13.446Z,7.70
2018-12-22T12:51:45.395Z,7.60
2018-12-22T12:54:13.622Z,7.70
2018-12-22T12:56:41.947Z,7.80
2018-12-22T12:59:10.199Z,7.70
2018-12-22T13:01:41.623Z,7.70
2018-12-22T13:04:09.816Z,7.80
2018-12-22T13:06:37.990Z,7.70
2018-12-22T13:09:06.889Z,7.80
2018-12-22T13:11:38.941Z,7.80
2018-12-22T13:14:07.898Z,7.90
2018-12-22T13:16:36.233Z,7.80
2018-12-22T13:19:04.412Z,7.90
2018-12-22T13:21:35.570Z,7.90
2018-12-22T13:24:03.798Z,7.90
2018-12-22T13:26:36.803Z,7.80
2018-12-22T13:29:02.205Z,7.80
2018-12-22T13:31:34.137Z,7.90
2018-12-22T13:34:02.324Z,7.80
2018-12-22T13:36:34.541Z,7.70
2018-12-22T13:39:00.853Z,7.70
2018-12-22T13:41:32.006Z,7.70
2018-12-22T13:44:00.334Z,7.80
2018-12-22T13:46:28.561Z,7.70
2018-12-22T13:48:56.778Z,7.80
2018-12-22T13:51:28.434Z,7.70
2018-12-22T13:53:56.650Z,7.70
2018-12-22T13:56:24.868Z,7.70
2018-12-22T13:58:53.075Z,7.70
2018-12-22T14:01:24.876Z,7.80
2018-12-22T14:03:53.087Z,7.80
2018-12-22T14:06:21.388Z,7.90
2018-12-22T14:08:49.611Z,7.80
2018-12-22T14:11:21.506Z,7.80
2018-12-22T14:13:49.735Z,7.90
2018-12-22T14:16:17.963Z,7.90
2018-12-22T14:18:46.221Z,7.80
2018-12-22T14:21:28.777Z,7.80
2018-12-22T14:24:15.036Z,7.90
2018-12-22T14:26:43.380Z,7.80
2018-12-22T14:29:11.623Z,7.90
2018-12-22T14:31:43.359Z,7.80
2018-12-22T14:34:18.830Z,7.90
2018-12-22T14:36:47.150Z,7.80
2018-12-22T14:39:15.571Z,7.90
2018-12-22T14:41:57.559Z,7.90
2018-12-22T14:44:25.731Z,7.90
2018-12-22T14:46:53.980Z,7.90
2018-12-22T14:49:22.208Z,7.90
2018-12-22T14:51:56.464Z,7.90
2018-12-22T14:54:24.650Z,7.80
2018-12-22T14:56:52.810Z,7.90
2018-12-22T14:59:21.090Z,7.90
2018-12-22T15:01:52.304Z,7.80
2018-12-22T15:04:20.508Z,7.80
2018-12-22T15:06:48.697Z,7.80
2018-12-22T15:09:16.913Z,7.80
2018-12-22T15:11:57.458Z,7.80
2018-12-22T15:14:29.159Z,7.80
2018-12-22T15:17:10.607Z,7.80
2018-12-22T15:19:38.833Z,7.90
2018-12-22T15:22:10.498Z,7.90
2018-12-22T15:24:38.641Z,7.80
2018-12-22T15:27:06.909Z,7.80
2018-12-22T15:29:35.103Z,7.80
2018-12-22T15:32:09.018Z,7.80
2018-12-22T15:34:43.780Z,7.80
2018-12-22T15:37:11.985Z,7.90
2018-12-22T15:39:40.194Z,7.80
2018-12-22T15:42:11.302Z,8.00
2018-12-22T15:44:39.472Z,7.90
2018-12-22T15:47:07.682Z,7.90
2018-12-22T15:49:35.936Z,8.00
2018-12-22T15:52:10.329Z,8.00
2018-12-22T15:54:38.558Z,8.00
2018-12-22T15:57:06.774Z,8.00
2018-12-22T15:59:35.004Z,8.00
2018-12-22T16:02:09.178Z,8.00
2018-12-22T16:04:37.339Z,8.10
2018-12-22T16:07:05.551Z,8.10
2018-12-22T16:09:33.709Z,8.10
2018-12-22T16:15:14.437Z,8.10
2018-12-22T16:17:42.635Z,8.10
2018-12-22T16:20:16.508Z,8.20
2018-12-22T16:22:51.493Z,8.30
2018-12-22T16:25:19.783Z,8.30
2018-12-22T16:27:48.079Z,8.30
2018-12-22T16:30:26.318Z,8.30
2018-12-22T16:33:01.591Z,8.20
2018-12-22T16:35:24.838Z,8.20
2018-12-22T16:37:53.033Z,8.20
2018-12-22T16:40:25.032Z,8.20
2018-12-22T16:42:53.266Z,8.30
2018-12-22T16:45:21.457Z,8.30
2018-12-22T16:47:49.603Z,8.20
2018-12-22T16:50:20.719Z,8.20
2018-12-22T16:52:48.940Z,8.30
2018-12-22T16:55:17.137Z,8.40
2018-12-22T16:57:53.138Z,8.40
2018-12-22T17:00:30.592Z,8.30
2018-12-22T17:02:58.863Z,8.30
2018-12-22T17:05:27.080Z,8.20
2018-12-22T17:07:55.234Z,8.30
2018-12-22T17:10:27.454Z,8.30
2018-12-22T17:12:55.691Z,8.30
2018-12-22T17:15:23.989Z,8.20
2018-12-22T17:17:52.303Z,8.20
2018-12-22T17:20:23.459Z,8.20
2018-12-22T17:23:00.235Z,8.30
2018-12-22T17:25:29.805Z,8.20
2018-12-22T17:27:57.997Z,8.30
2018-12-22T17:30:29.234Z,8.20
2018-12-22T17:32:57.390Z,8.30
2018-12-22T17:35:25.605Z,8.30
2018-12-22T17:37:53.823Z,8.30
2018-12-22T17:40:25.827Z,8.30
2018-12-22T17:42:54.027Z,8.30
2018-12-22T17:45:22.273Z,8.30
2018-12-22T17:47:50.458Z,8.30
2018-12-22T17:50:22.506Z,8.30
2018-12-22T17:52:53.692Z,8.40
2018-12-22T17:55:22.011Z,8.20
2018-12-22T17:57:50.174Z,8.30
2018-12-22T18:00:21.740Z,8.30
2018-12-22T18:02:49.921Z,8.30
2018-12-22T18:05:18.167Z,8.40
2018-12-22T18:07:46.410Z,8.30
2018-12-22T18:10:17.805Z,8.30
2018-12-22T18:12:46.151Z,8.30
2018-12-22T18:15:24.512Z,8.30
2018-12-22T18:17:52.758Z,8.50
2018-12-22T18:20:24.703Z,8.60
2018-12-22T18:22:52.983Z,8.50
2018-12-22T18:25:21.792Z,8.50
2018-12-22T18:27:52.273Z,8.50
2018-12-22T18:30:23.844Z,8.60
2018-12-22T18:32:52.027Z,8.50
2018-12-22T18:35:20.339Z,8.60
2018-12-22T18:37:48.571Z,8.50
2018-12-22T18:40:22.953Z,8.50
2018-12-22T18:42:51.172Z,8.60
2018-12-22T18:45:19.398Z,8.70
2018-12-22T18:47:47.611Z,8.70
2018-12-22T18:50:23.720Z,8.70
2018-12-22T18:52:51.958Z,8.60
2018-12-22T18:55:20.193Z,8.80
2018-12-22T18:57:50.563Z,8.70
2018-12-22T19:00:23.339Z,8.70
2018-12-22T19:02:52.099Z,8.60
2018-12-22T19:05:20.559Z,8.70
2018-12-22T19:07:49.165Z,8.70
2018-12-22T19:10:26.595Z,8.70
2018-12-22T19:12:56.106Z,8.70
2018-12-22T19:15:24.653Z,8.80
2018-12-22T19:17:52.890Z,8.80
2018-12-22T19:20:33.202Z,8.80
2018-12-22T19:23:01.405Z,8.80
2018-12-22T19:25:29.994Z,8.90
2018-12-22T19:27:58.167Z,8.80
2018-12-22T19:30:29.493Z,8.80
2018-12-22T19:32:57.678Z,8.80
2018-12-22T19:35:25.867Z,8.80
2018-12-22T19:37:54.135Z,8.90
2018-12-22T19:40:25.784Z,8.90
2018-12-22T19:42:53.976Z,8.80
2018-12-22T19:45:22.193Z,8.90
2018-12-22T19:47:50.422Z,8.80
2018-12-22T19:50:22.301Z,8.90
2018-12-22T19:52:50.586Z,8.90
2018-12-22T19:55:18.798Z,8.90
2018-12-22T19:57:47.189Z,8.80
2018-12-22T20:00:19.318Z,8.70
2018-12-22T20:02:47.476Z,8.80
2018-12-22T20:05:15.776Z,8.80
2018-12-22T20:07:43.990Z,8.60
2018-12-22T20:10:16.034Z,8.60
2018-12-22T20:12:44.486Z,8.60
2018-12-22T20:15:12.711Z,8.80
2018-12-22T20:17:40.908Z,8.70
2018-12-22T20:20:12.515Z,8.60
2018-12-22T20:22:40.682Z,8.60
2018-12-22T20:25:09.044Z,8.70
2018-12-22T20:27:37.394Z,8.60
2018-12-22T20:30:06.705Z,8.70
2018-12-22T20:32:34.977Z,8.60
2018-12-22T20:35:03.456Z,8.70
2018-12-22T20:37:31.772Z,8.60
2018-12-22T20:40:00.084Z,8.60
2018-12-22T20:42:28.369Z,8.70
2018-12-22T20:44:56.574Z,8.70
2018-12-22T20:47:24.814Z,8.70
2018-12-22T20:49:53.071Z,8.60
2018-12-22T20:52:21.302Z,8.70
2018-12-22T20:54:49.517Z,8.70
2018-12-22T20:57:17.813Z,8.80
2018-12-22T20:59:46.401Z,8.80
2018-12-22T21:02:14.741Z,8.80
2018-12-22T21:04:42.949Z,8.80
2018-12-22T21:07:11.283Z,8.80
2018-12-22T21:09:39.485Z,8.80
2018-12-22T21:12:11.077Z,8.80
2018-12-22T21:14:39.279Z,8.90
2018-12-22T21:17:07.525Z,8.80
2018-12-22T21:19:49.591Z,8.90
2018-12-22T21:22:17.863Z,8.80
2018-12-22T21:24:46.063Z,8.90
2018-12-22T21:27:14.456Z,8.90
2018-12-22T21:29:42.612Z,8.70
2018-12-22T21:32:17.519Z,8.80
2018-12-22T21:34:45.910Z,8.80
2018-12-22T21:37:14.156Z,8.80
2018-12-22T21:39:42.346Z,8.80
2018-12-22T21:42:14.626Z,8.80
2018-12-22T21:44:42.841Z,8.80
2018-12-22T21:47:10.986Z,8.70
2018-12-22T21:49:39.282Z,8.70
2018-12-22T21:55:11.335Z,8.70
2018-12-22T21:57:39.533Z,8.60
2018-12-22T22:00:07.851Z,8.70
2018-12-22T22:02:36.082Z,8.70
2018-12-22T22:05:04.722Z,8.70
2018-12-22T22:07:32.891Z,8.70
2018-12-22T22:10:02.287Z,8.70
2018-12-22T22:12:30.495Z,8.80
2018-12-22T22:14:58.725Z,8.70
2018-12-22T22:17:26.974Z,8.80
2018-12-22T22:19:55.370Z,8.80
2018-12-22T22:22:25.635Z,8.80
2018-12-22T22:24:54.315Z,8.70
2018-12-22T22:27:22.624Z,8.80
2018-12-22T22:29:53.928Z,8.80
2018-12-22T22:32:22.285Z,8.80
2018-12-22T22:34:50.502Z,8.90
2018-12-22T22:37:18.713Z,8.90
2018-12-22T22:39:47.484Z,8.90
2018-12-22T22:42:15.676Z,8.90
2018-12-22T22:44:44.025Z,8.90
2018-12-22T22:47:12.216Z,8.90
2018-12-22T22:49:40.428Z,8.90
2018-12-22T22:52:11.611Z,8.90
2018-12-22T22:54:39.775Z,9.00
2018-12-22T22:57:07.987Z,9.10
2018-12-22T22:59:36.216Z,9.00
2018-12-22T23:02:08.135Z,8.90
2018-12-22T23:04:36.278Z,9.00
2018-12-22T23:07:04.495Z,9.10
2018-12-22T23:09:45.672Z,9.00
2018-12-22T23:12:13.939Z,9.00
2018-12-22T23:14:42.115Z,8.90
2018-12-22T23:17:10.336Z,9.00
2018-12-22T23:19:38.519Z,9.10
2018-12-22T23:22:10.372Z,8.90
2018-12-22T23:24:38.712Z,9.00
2018-12-22T23:27:06.964Z,9.00
2018-12-22T23:29:35.232Z,8.90
2018-12-22T23:32:06.314Z,9.10
2018-12-22T23:34:34.522Z,9.10
2018-12-22T23:37:02.739Z,9.10
2018-12-22T23:39:30.958Z,9.00
2018-12-22T23:42:05.721Z,9.10
2018-12-22T23:44:33.977Z,9.10
2018-12-22T23:47:24.892Z,9.10
2018-12-22T23:49:54.987Z,9.10
2018-12-22T23:52:23.260Z,9.00
2018-12-22T23:54:55.106Z,9.10
2018-12-22T23:57:39.545Z,9.00
